Terminal Aerodrome Forecast
Issued by NWS

Home | Current Version | Previous Version | Text Only | Print | Product List | Glossary On
Versions: 1 2 3 4 5 6 7 8 9 10 11 12
560
FTUS45 KRIW 061136
TAFBPI
TAF
KBPI 061136Z 0612/0712 35007KT P6SM SCT090 BKN200
     FM061800 31012G18KT P6SM SCT070 BKN200
     FM070200 32014G22KT P6SM SCT050 BKN080
     FM070900 34009KT P6SM SCT080=

USA.gov is the U.S. government's official web portal to all federal, state and local government web resources and services.